createdAt,value
2023-05-13T00:02:14.666Z,12.46
2023-05-13T00:04:43.257Z,12.57
2023-05-13T00:07:11.795Z,12.39
2023-05-13T00:09:40.221Z,12.48
2023-05-13T00:12:10.422Z,12.53
2023-05-13T00:14:38.923Z,12.57
2023-05-13T00:17:07.312Z,12.55
2023-05-13T00:19:35.767Z,12.02
2023-05-13T00:22:04.312Z,12.40
2023-05-13T00:24:32.791Z,12.50
2023-05-13T00:27:01.285Z,12.50
2023-05-13T00:29:31.636Z,12.35
2023-05-13T00:32:00.340Z,12.49
2023-05-13T00:34:28.871Z,12.53
2023-05-13T00:36:57.319Z,12.57
2023-05-13T00:39:25.961Z,12.62
2023-05-13T00:41:55.657Z,12.66
2023-05-13T00:44:24.167Z,11.97
2023-05-13T00:46:54.694Z,12.67
2023-05-13T00:49:23.441Z,12.66
2023-05-13T00:51:53.039Z,12.68
2023-05-13T00:54:22.887Z,12.68
2023-05-13T00:56:54.516Z,12.67
2023-05-13T00:59:23.061Z,12.66
2023-05-13T01:02:08.893Z,12.38
2023-05-13T01:04:50.813Z,12.65
2023-05-13T01:07:29.066Z,12.68
2023-05-13T01:10:04.908Z,12.72
2023-05-13T01:12:38.100Z,12.74
2023-05-13T01:15:09.922Z,11.59
2023-05-13T01:17:53.105Z,10.59
2023-05-13T01:20:31.577Z,12.70
2023-05-13T01:23:11.179Z,12.48
2023-05-13T01:25:48.736Z,12.07
2023-05-13T01:28:24.540Z,12.34
2023-05-13T01:31:05.670Z,12.66
2023-05-13T01:33:42.382Z,12.62
2023-05-13T01:36:20.819Z,12.19
2023-05-13T01:39:01.719Z,12.21
2023-05-13T01:41:38.540Z,12.57
2023-05-13T01:44:15.063Z,12.56
2023-05-13T01:46:53.839Z,12.38
2023-05-13T01:49:29.754Z,12.58
2023-05-13T01:52:08.151Z,12.60
2023-05-13T01:54:46.303Z,12.64
2023-05-13T01:57:23.417Z,12.67
2023-05-13T02:00:01.082Z,12.71
2023-05-13T02:02:40.392Z,12.12
2023-05-13T02:05:16.853Z,12.73
2023-05-13T02:07:55.070Z,12.70
2023-05-13T02:10:33.808Z,12.36
2023-05-13T02:13:14.347Z,12.37
2023-05-13T02:15:52.369Z,12.66
2023-05-13T02:18:30.013Z,12.30
2023-05-13T02:21:06.202Z,12.67
2023-05-13T02:23:43.406Z,12.39
2023-05-13T02:26:22.635Z,12.72
2023-05-13T02:28:59.629Z,11.89
2023-05-13T02:31:40.778Z,12.74
2023-05-13T02:34:18.005Z,12.72
2023-05-13T02:36:53.357Z,12.74
2023-05-13T02:39:32.119Z,12.76
2023-05-13T02:42:13.719Z,12.76
2023-05-13T02:44:52.975Z,12.77
2023-05-13T02:47:29.798Z,12.80
2023-05-13T02:50:11.096Z,12.82
2023-05-13T02:52:48.134Z,12.83
2023-05-13T02:55:25.462Z,12.78
2023-05-13T02:58:06.777Z,12.74
2023-05-13T03:00:46.973Z,12.21
2023-05-13T03:03:25.146Z,12.07
2023-05-13T03:06:05.264Z,12.67
2023-05-13T03:08:42.986Z,12.68
2023-05-13T03:11:22.493Z,12.68
2023-05-13T03:14:03.797Z,12.67
2023-05-13T03:16:42.110Z,12.64
2023-05-13T03:19:19.616Z,12.65
2023-05-13T03:21:51.462Z,12.67
2023-05-13T03:24:20.183Z,12.64
2023-05-13T03:26:48.623Z,12.50
2023-05-13T03:29:18.543Z,12.60
2023-05-13T03:31:47.396Z,12.58
2023-05-13T03:34:15.868Z,12.50
2023-05-13T03:36:44.385Z,11.83
2023-05-13T03:39:13.439Z,12.35
2023-05-13T03:41:43.212Z,12.29
2023-05-13T03:44:11.917Z,12.22
2023-05-13T03:46:41.847Z,12.19
2023-05-13T03:49:10.629Z,11.75
2023-05-13T03:51:39.247Z,11.86
2023-05-13T03:54:08.327Z,11.85
2023-05-13T03:56:37.146Z,12.14
2023-05-13T03:59:05.600Z,12.11
2023-05-13T04:01:35.600Z,11.68
2023-05-13T04:04:06.749Z,12.08
2023-05-13T04:06:35.155Z,12.03
2023-05-13T04:09:05.628Z,9.92
2023-05-13T04:11:34.154Z,11.97
2023-05-13T04:14:02.552Z,11.72
2023-05-13T04:16:31.067Z,11.92
2023-05-13T04:18:59.562Z,11.93
2023-05-13T04:21:31.559Z,11.95
2023-05-13T04:23:59.943Z,11.92
2023-05-13T04:26:28.407Z,11.73
2023-05-13T04:28:56.915Z,11.84
2023-05-13T04:31:26.956Z,11.76
2023-05-13T04:33:56.362Z,11.32
2023-05-13T04:36:25.132Z,11.18
2023-05-13T04:38:57.335Z,11.60
2023-05-13T04:41:25.870Z,11.60
2023-05-13T04:43:54.273Z,11.62
2023-05-13T04:46:22.946Z,11.46
2023-05-13T04:48:52.973Z,11.64
2023-05-13T04:51:21.969Z,11.66
2023-05-13T04:53:51.064Z,11.66
2023-05-13T04:56:21.991Z,11.67
2023-05-13T04:58:51.146Z,11.45
2023-05-13T05:01:19.636Z,11.70
2023-05-13T05:03:48.709Z,11.72
2023-05-13T05:06:17.113Z,11.73
2023-05-13T05:08:46.268Z,11.33
2023-05-13T05:11:14.689Z,11.77
2023-05-13T05:13:44.640Z,11.79
2023-05-13T05:16:13.132Z,11.48
2023-05-13T05:18:43.730Z,11.59
2023-05-13T05:21:12.433Z,10.57
2023-05-13T05:23:41.460Z,11.14
2023-05-13T05:26:12.175Z,11.83
2023-05-13T05:28:47.113Z,11.86
2023-05-13T05:31:17.607Z,11.91
2023-05-13T05:33:46.291Z,11.81
2023-05-13T05:36:15.667Z,12.10
2023-05-13T05:38:44.116Z,12.25
2023-05-13T05:41:14.504Z,12.39
2023-05-13T05:43:44.432Z,12.51
2023-05-13T05:46:12.818Z,12.60
2023-05-13T05:48:41.626Z,12.71
2023-05-13T05:51:10.139Z,12.82
2023-05-13T05:53:41.294Z,12.90
2023-05-13T05:56:12.624Z,12.99
2023-05-13T05:58:41.086Z,13.08
2023-05-13T06:01:10.967Z,13.22
2023-05-13T06:03:39.699Z,13.36
2023-05-13T06:06:08.471Z,13.54
2023-05-13T06:08:36.821Z,13.79
2023-05-13T06:11:05.164Z,14.05
2023-05-13T06:13:33.723Z,14.20
2023-05-13T06:16:02.126Z,14.43
2023-05-13T06:18:32.079Z,14.54
2023-05-13T06:21:00.511Z,14.61
2023-05-13T06:23:28.920Z,14.76
2023-05-13T06:25:58.806Z,14.91
2023-05-13T06:28:27.193Z,15.09
2023-05-13T06:30:55.922Z,15.43
2023-05-13T06:33:24.961Z,15.48
2023-05-13T06:35:54.787Z,16.57
2023-05-13T06:38:24.611Z,17.17
2023-05-13T06:40:57.617Z,17.56
2023-05-13T06:43:33.064Z,17.83
2023-05-13T06:46:09.583Z,17.90
2023-05-13T06:48:38.030Z,17.94
2023-05-13T06:51:07.973Z,18.07
2023-05-13T06:53:36.561Z,18.44
2023-05-13T06:56:05.102Z,18.96
2023-05-13T06:58:33.554Z,19.39
2023-05-13T07:01:02.364Z,19.65
2023-05-13T07:03:30.998Z,19.95
2023-05-13T07:05:59.389Z,20.32
2023-05-13T07:08:29.223Z,20.43
2023-05-13T07:10:57.606Z,20.52
2023-05-13T07:13:26.349Z,20.69
2023-05-13T07:15:54.700Z,20.66
2023-05-13T07:18:23.941Z,20.78
2023-05-13T07:20:52.661Z,20.89
2023-05-13T07:23:21.105Z,21.11
2023-05-13T07:25:51.709Z,21.27
2023-05-13T07:28:20.241Z,21.18
2023-05-13T07:30:48.857Z,21.16
2023-05-13T07:33:17.398Z,21.26
2023-05-13T07:35:45.806Z,21.23
2023-05-13T07:38:14.295Z,21.40
2023-05-13T07:40:42.851Z,21.29
2023-05-13T07:43:13.687Z,21.18
2023-05-13T07:45:42.426Z,21.23
2023-05-13T07:48:11.212Z,21.37
2023-05-13T07:50:39.747Z,21.49
2023-05-13T07:53:08.099Z,21.57
2023-05-13T07:55:36.604Z,21.76
2023-05-13T07:58:04.996Z,21.86
2023-05-13T08:00:35.950Z,21.82
2023-05-13T08:03:04.603Z,21.49
2023-05-13T08:05:33.046Z,21.22
2023-05-13T08:08:01.995Z,21.06
2023-05-13T08:10:30.908Z,20.75
2023-05-13T08:13:01.075Z,20.53
2023-05-13T08:15:29.573Z,20.33
2023-05-13T08:17:59.347Z,20.30
2023-05-13T08:20:30.200Z,20.34
2023-05-13T08:22:58.970Z,20.34
2023-05-13T08:25:27.319Z,20.41
2023-05-13T08:27:55.818Z,20.49
2023-05-13T08:30:24.420Z,20.53
2023-05-13T08:32:52.945Z,20.47
2023-05-13T08:35:23.294Z,20.38
2023-05-13T08:37:51.832Z,20.13
2023-05-13T08:40:21.323Z,19.88
2023-05-13T08:42:52.139Z,19.74
2023-05-13T08:45:22.998Z,19.71
2023-05-13T08:47:53.847Z,19.74
2023-05-13T08:50:24.177Z,19.74
2023-05-13T08:52:54.514Z,19.59
2023-05-13T08:55:24.373Z,19.49
2023-05-13T08:57:53.481Z,19.26
2023-05-13T09:00:22.179Z,19.07
2023-05-13T09:02:51.278Z,18.96
2023-05-13T09:05:20.440Z,18.73
2023-05-13T09:07:50.325Z,18.91
2023-05-13T09:10:19.318Z,18.83
2023-05-13T09:12:49.760Z,18.79
2023-05-13T09:15:20.606Z,18.73
2023-05-13T09:17:52.539Z,18.84
2023-05-13T09:20:22.474Z,18.31
2023-05-13T09:22:53.578Z,19.41
2023-05-13T09:25:24.599Z,19.64
2023-05-13T09:27:57.725Z,19.86
2023-05-13T09:30:27.268Z,20.07
2023-05-13T09:33:10.300Z,20.18
2023-05-13T09:35:40.427Z,20.09
2023-05-13T09:38:21.104Z,19.98
2023-05-13T09:40:53.289Z,20.07
2023-05-13T09:43:22.683Z,20.18
2023-05-13T09:45:55.379Z,20.36
2023-05-13T09:48:24.184Z,20.54
2023-05-13T09:50:53.533Z,20.76
2023-05-13T09:53:23.609Z,20.96
2023-05-13T09:55:53.853Z,21.18
2023-05-13T09:58:24.454Z,21.29
2023-05-13T10:00:53.785Z,21.23
2023-05-13T10:03:23.504Z,21.27
2023-05-13T10:05:53.729Z,20.90
2023-05-13T10:08:23.958Z,21.50
2023-05-13T10:10:56.728Z,21.34
2023-05-13T10:13:25.893Z,21.05
2023-05-13T10:15:56.017Z,20.73
2023-05-13T10:18:25.184Z,20.53
2023-05-13T10:20:54.277Z,20.38
2023-05-13T10:23:25.093Z,20.34
2023-05-13T10:25:56.070Z,20.59
2023-05-13T10:28:26.549Z,20.89
2023-05-13T10:30:55.225Z,21.09
2023-05-13T10:33:23.813Z,20.89
2023-05-13T10:36:05.802Z,20.68
2023-05-13T10:38:51.011Z,20.66
2023-05-13T10:41:40.319Z,20.70
2023-05-13T10:44:09.869Z,21.18
2023-05-13T10:46:39.870Z,21.43
2023-05-13T10:49:16.001Z,21.59
2023-05-13T10:51:47.258Z,21.45
2023-05-13T10:54:22.302Z,21.37
2023-05-13T10:56:58.605Z,21.19
2023-05-13T10:59:30.669Z,20.84
2023-05-13T11:02:03.638Z,20.94
2023-05-13T11:04:32.320Z,20.73
2023-05-13T11:07:16.751Z,20.60
2023-05-13T11:09:52.302Z,20.47
2023-05-13T11:12:20.783Z,20.22
2023-05-13T11:14:49.810Z,20.38
2023-05-13T11:17:21.349Z,20.37
2023-05-13T11:19:52.508Z,20.35
2023-05-13T11:22:22.841Z,20.40
2023-05-13T11:25:06.913Z,20.59
2023-05-13T11:27:39.756Z,20.83
2023-05-13T11:30:10.217Z,21.05
2023-05-13T11:32:56.620Z,21.21
2023-05-13T11:35:27.494Z,21.33
2023-05-13T11:37:59.144Z,21.40
2023-05-13T11:40:31.460Z,21.42
2023-05-13T11:43:00.461Z,21.46
2023-05-13T11:45:30.522Z,21.42
2023-05-13T11:47:59.446Z,21.31
2023-05-13T11:50:30.252Z,21.28
2023-05-13T11:53:00.018Z,21.39
2023-05-13T11:55:31.426Z,21.48
2023-05-13T11:58:00.646Z,21.60
2023-05-13T12:00:30.541Z,21.80
2023-05-13T12:03:00.399Z,21.87
2023-05-13T12:05:29.233Z,21.88
2023-05-13T12:07:58.657Z,22.00
2023-05-13T12:10:29.240Z,21.77
2023-05-13T12:12:58.739Z,21.90
2023-05-13T12:15:27.233Z,21.62
2023-05-13T12:17:55.876Z,21.16
2023-05-13T12:20:25.525Z,20.59
2023-05-13T12:22:57.115Z,20.13
2023-05-13T12:25:51.532Z,19.77
2023-05-13T12:28:21.217Z,19.53
2023-05-13T12:30:54.933Z,19.52
2023-05-13T12:33:24.670Z,19.37
2023-05-13T12:35:54.844Z,19.33
2023-05-13T12:38:25.761Z,18.87
2023-05-13T12:40:56.433Z,18.95
2023-05-13T12:43:24.996Z,18.77
2023-05-13T12:45:55.813Z,18.69
2023-05-13T12:48:27.376Z,18.57
2023-05-13T12:50:56.619Z,18.47
2023-05-13T12:53:25.219Z,18.40
2023-05-13T12:55:53.818Z,18.34
2023-05-13T12:58:23.655Z,18.33
2023-05-13T13:00:52.075Z,18.35
2023-05-13T13:03:23.207Z,18.33
2023-05-13T13:05:53.244Z,18.38
2023-05-13T13:08:21.870Z,18.43
2023-05-13T13:10:50.364Z,18.42
2023-05-13T13:13:18.782Z,18.38
2023-05-13T13:15:48.672Z,18.24
2023-05-13T13:18:17.134Z,18.19
2023-05-13T13:20:45.655Z,18.31
2023-05-13T13:23:14.019Z,18.46
2023-05-13T13:25:42.668Z,18.55
2023-05-13T13:28:11.158Z,18.50
2023-05-13T13:30:39.776Z,18.40
2023-05-13T13:33:12.243Z,18.45
2023-05-13T13:35:41.714Z,18.69
2023-05-13T13:38:10.051Z,19.00
2023-05-13T13:40:38.664Z,19.28
2023-05-13T13:43:07.668Z,19.42
2023-05-13T13:45:37.307Z,19.52
2023-05-13T13:48:06.330Z,19.62
2023-05-13T13:50:36.276Z,19.68
2023-05-13T13:53:04.690Z,19.81
2023-05-13T13:55:33.173Z,19.82
2023-05-13T13:58:01.526Z,19.72
2023-05-13T14:00:30.037Z,19.58
2023-05-13T14:02:58.679Z,19.43
2023-05-13T14:05:27.223Z,19.35
2023-05-13T14:07:57.114Z,19.28
2023-05-13T14:10:25.720Z,19.20
2023-05-13T14:12:54.248Z,19.19
2023-05-13T14:15:22.665Z,19.21
2023-05-13T14:17:51.073Z,19.30
2023-05-13T14:20:20.933Z,19.35
2023-05-13T14:22:49.504Z,19.46
2023-05-13T14:25:19.385Z,19.59
2023-05-13T14:27:47.799Z,19.67
2023-05-13T14:30:16.401Z,19.84
2023-05-13T14:32:45.477Z,20.05
2023-05-13T14:35:14.628Z,20.24
2023-05-13T14:37:44.452Z,20.44
2023-05-13T14:40:12.966Z,20.60
2023-05-13T14:42:42.770Z,20.74
2023-05-13T14:45:15.987Z,20.86
2023-05-13T14:47:46.162Z,20.93
2023-05-13T14:50:15.357Z,20.96
2023-05-13T14:52:44.001Z,20.87
2023-05-13T14:55:12.410Z,20.78
2023-05-13T14:57:42.411Z,20.74
2023-05-13T15:00:11.915Z,20.59
2023-05-13T15:02:40.572Z,20.58
2023-05-13T15:05:09.920Z,20.53
2023-05-13T15:07:38.327Z,20.46
2023-05-13T15:10:07.626Z,20.39
2023-05-13T15:12:36.980Z,20.33
2023-05-13T15:15:08.213Z,20.33
2023-05-13T15:17:37.498Z,20.43
2023-05-13T15:20:06.682Z,20.54
2023-05-13T15:22:35.171Z,20.62
2023-05-13T15:25:03.539Z,20.68
2023-05-13T15:27:31.999Z,20.65
2023-05-13T15:30:00.477Z,20.67
2023-05-13T15:32:30.497Z,20.64
2023-05-13T15:34:58.893Z,20.68
2023-05-13T15:37:27.368Z,20.65
2023-05-13T15:39:55.823Z,20.64
2023-05-13T15:42:24.496Z,20.67
2023-05-13T15:44:52.865Z,20.65
2023-05-13T15:47:21.434Z,20.74
2023-05-13T15:49:53.551Z,20.85
2023-05-13T15:52:22.405Z,20.90
2023-05-13T15:54:52.430Z,20.94
2023-05-13T15:57:20.918Z,21.00
2023-05-13T15:59:49.356Z,21.09
2023-05-13T16:02:18.843Z,21.14
2023-05-13T16:04:47.535Z,21.08
2023-05-13T16:07:17.465Z,21.10
2023-05-13T16:09:45.977Z,21.16
2023-05-13T16:12:14.451Z,21.13
2023-05-13T16:14:46.437Z,21.09
2023-05-13T16:17:15.176Z,21.02
2023-05-13T16:19:44.585Z,21.02
2023-05-13T16:22:32.842Z,20.95
2023-05-13T16:25:02.943Z,20.89
2023-05-13T16:27:31.717Z,20.89
2023-05-13T16:30:00.818Z,20.84
2023-05-13T16:32:30.498Z,20.60
2023-05-13T16:34:59.037Z,20.65
2023-05-13T16:37:27.512Z,20.68
2023-05-13T16:39:57.441Z,20.75
2023-05-13T16:42:27.079Z,20.66
2023-05-13T16:44:56.413Z,20.66
2023-05-13T16:47:24.947Z,20.67
2023-05-13T16:49:53.339Z,20.67
2023-05-13T16:52:21.791Z,20.69
2023-05-13T16:54:50.311Z,20.65
2023-05-13T16:57:22.393Z,20.53
2023-05-13T16:59:50.835Z,20.48
2023-05-13T17:02:19.278Z,20.49
2023-05-13T17:04:47.742Z,20.45
2023-05-13T17:07:16.349Z,20.43
2023-05-13T17:09:44.773Z,20.39
2023-05-13T17:12:13.336Z,20.32
2023-05-13T17:14:43.153Z,20.19
2023-05-13T17:17:11.652Z,20.07
2023-05-13T17:19:40.142Z,19.98
2023-05-13T17:22:08.502Z,19.89
2023-05-13T17:24:38.743Z,19.79
2023-05-13T17:27:07.481Z,19.66
2023-05-13T17:29:35.797Z,19.55
2023-05-13T17:32:06.254Z,19.47
2023-05-13T17:34:34.701Z,19.38
2023-05-13T17:37:04.159Z,19.32
2023-05-13T17:39:32.750Z,19.17
2023-05-13T17:42:01.104Z,19.04
2023-05-13T17:44:29.604Z,18.89
2023-05-13T17:46:58.058Z,18.80
2023-05-13T17:49:28.019Z,18.76
2023-05-13T17:51:56.473Z,18.58
2023-05-13T17:54:24.956Z,18.49
2023-05-13T17:56:53.484Z,18.46
2023-05-13T17:59:21.873Z,18.43
2023-05-13T18:01:50.423Z,18.38
2023-05-13T18:04:19.169Z,18.32
2023-05-13T18:06:48.999Z,18.27
2023-05-13T18:09:17.522Z,18.26
2023-05-13T18:11:47.006Z,18.23
2023-05-13T18:14:16.404Z,18.13
2023-05-13T18:16:44.951Z,18.02
2023-05-13T18:19:13.392Z,17.91
2023-05-13T18:21:41.875Z,17.86
2023-05-13T18:24:12.014Z,17.84
2023-05-13T18:26:40.473Z,17.68
2023-05-13T18:29:08.910Z,17.64
2023-05-13T18:31:37.543Z,17.61
2023-05-13T18:34:05.998Z,17.59
2023-05-13T18:36:34.462Z,17.58
2023-05-13T18:39:02.999Z,17.57
2023-05-13T18:41:32.799Z,17.52
2023-05-13T18:44:01.709Z,17.56
2023-05-13T18:46:30.253Z,17.49
2023-05-13T18:49:00.414Z,17.42
2023-05-13T18:51:28.887Z,17.33
2023-05-13T18:53:57.289Z,17.20
2023-05-13T18:56:25.635Z,17.27
2023-05-13T18:58:55.688Z,17.24
2023-05-13T19:01:24.352Z,17.17
2023-05-13T19:03:53.458Z,17.18
2023-05-13T19:06:21.923Z,17.11
2023-05-13T19:08:50.321Z,17.08
2023-05-13T19:11:18.931Z,17.00
2023-05-13T19:13:48.005Z,16.86
2023-05-13T19:16:18.127Z,16.80
2023-05-13T19:18:46.622Z,16.73
2023-05-13T19:21:15.118Z,16.65
2023-05-13T19:23:43.578Z,16.54
2023-05-13T19:26:12.169Z,16.49
2023-05-13T19:28:42.599Z,16.46
2023-05-13T19:31:11.189Z,16.44
2023-05-13T19:33:41.125Z,16.44
2023-05-13T19:36:10.763Z,16.48
2023-05-13T19:38:39.199Z,16.45
2023-05-13T19:41:07.676Z,16.34
2023-05-13T19:43:36.098Z,16.14
2023-05-13T19:46:04.545Z,16.02
2023-05-13T19:48:33.014Z,15.91
2023-05-13T19:51:05.068Z,15.65
2023-05-13T19:53:33.496Z,15.46
2023-05-13T19:56:01.991Z,15.36
2023-05-13T19:58:30.475Z,15.30
2023-05-13T20:00:59.305Z,15.24
2023-05-13T20:03:27.802Z,15.20
2023-05-13T20:05:56.277Z,15.18
2023-05-13T20:08:26.121Z,15.13
2023-05-13T20:10:54.594Z,15.17
2023-05-13T20:13:22.958Z,15.15
2023-05-13T20:15:51.917Z,15.07
2023-05-13T20:18:20.436Z,15.03
2023-05-13T20:20:48.828Z,14.98
2023-05-13T20:23:17.295Z,14.91
2023-05-13T20:25:48.650Z,14.83
2023-05-13T20:28:17.051Z,14.74
2023-05-13T20:30:45.556Z,14.65
2023-05-13T20:33:14.362Z,14.55
2023-05-13T20:35:42.686Z,14.49
2023-05-13T20:38:11.169Z,14.69
2023-05-13T20:40:39.667Z,14.51
2023-05-13T20:43:09.491Z,14.39
2023-05-13T20:45:39.776Z,14.31
2023-05-13T20:48:09.311Z,14.29
2023-05-13T20:50:38.092Z,14.28
2023-05-13T20:53:06.476Z,14.23
2023-05-13T20:55:34.890Z,14.22
2023-05-13T20:58:03.286Z,14.24
2023-05-13T21:00:33.186Z,14.29
2023-05-13T21:03:01.883Z,14.30
2023-05-13T21:05:30.310Z,14.26
2023-05-13T21:07:58.680Z,14.26
2023-05-13T21:10:27.118Z,14.28
2023-05-13T21:12:55.523Z,14.32
2023-05-13T21:15:23.918Z,14.36
2023-05-13T21:17:54.577Z,14.37
2023-05-13T21:20:23.494Z,14.37
2023-05-13T21:22:52.145Z,14.33
2023-05-13T21:25:20.646Z,14.32
2023-05-13T21:27:50.481Z,14.33
2023-05-13T21:30:18.968Z,14.19
2023-05-13T21:32:47.528Z,14.14
2023-05-13T21:35:17.823Z,14.11
2023-05-13T21:37:47.532Z,14.07
2023-05-13T21:40:16.690Z,14.04
2023-05-13T21:42:45.105Z,14.00
2023-05-13T21:45:15.094Z,13.98
2023-05-13T21:47:43.556Z,13.98
2023-05-13T21:50:12.844Z,13.93
2023-05-13T21:52:42.634Z,13.90
2023-05-13T21:55:11.583Z,13.81
2023-05-13T21:57:40.110Z,13.75
2023-05-13T22:00:15.252Z,13.78
2023-05-13T22:02:46.823Z,13.81
2023-05-13T22:05:15.483Z,13.85
2023-05-13T22:07:45.284Z,13.84
2023-05-13T22:10:13.826Z,13.83
2023-05-13T22:12:42.256Z,13.75
2023-05-13T22:15:11.879Z,13.67
2023-05-13T22:17:40.450Z,13.64
2023-05-13T22:20:10.077Z,13.64
2023-05-13T22:22:38.528Z,13.65
2023-05-13T22:25:09.250Z,13.68
2023-05-13T22:27:37.704Z,13.64
2023-05-13T22:30:07.181Z,13.61
2023-05-13T22:32:37.135Z,13.55
2023-05-13T22:35:06.212Z,13.55
2023-05-13T22:37:34.689Z,13.56
2023-05-13T22:40:03.347Z,13.56
2023-05-13T22:42:33.199Z,13.51
2023-05-13T22:45:01.619Z,13.47
2023-05-13T22:47:30.090Z,13.51
2023-05-13T22:49:58.562Z,13.55
2023-05-13T22:52:27.121Z,13.58
2023-05-13T22:54:55.553Z,13.28
2023-05-13T22:57:23.993Z,13.47
2023-05-13T22:59:54.763Z,13.21
2023-05-13T23:02:23.829Z,13.51
2023-05-13T23:04:52.519Z,13.53
2023-05-13T23:07:21.029Z,13.53
2023-05-13T23:09:50.580Z,13.27
2023-05-13T23:12:19.045Z,13.41
2023-05-13T23:14:47.498Z,13.37
2023-05-13T23:17:17.252Z,12.87
2023-05-13T23:19:45.712Z,13.33
2023-05-13T23:22:14.182Z,12.99
2023-05-13T23:24:42.544Z,13.35
2023-05-13T23:27:11.696Z,13.36
2023-05-13T23:29:40.033Z,13.38
2023-05-13T23:32:09.259Z,13.39
2023-05-13T23:34:39.145Z,13.40
2023-05-13T23:37:07.658Z,13.36
2023-05-13T23:39:36.135Z,13.32
2023-05-13T23:42:04.781Z,13.30
2023-05-13T23:44:33.254Z,13.27
2023-05-13T23:47:01.752Z,12.57
2023-05-13T23:49:31.236Z,12.98
2023-05-13T23:52:01.131Z,13.08
2023-05-13T23:54:31.154Z,12.98
2023-05-13T23:56:59.540Z,12.52
2023-05-13T23:59:28.079Z,12.73
